This is the latest recevied weather packets stored in our database for station/object N4DLW-3. If no packets are shown the sender has not sent any weather packets the latest 10 day(s).
| Time | Temp. | Humidity | Pressure | Rain* | Wind** | Luminosity | Snow |
|---|---|---|---|---|---|---|---|
| 1778000682 | 32.78° C | 46% | 1015.5 hPa | 0 mm | - | - | - |
| 1778000377 | 32.78° C | 47% | 1015.6 hPa | 0 mm | - | - | - |
| 1778000084 | 32.78° C | 48% | 1015.5 hPa | 0 mm | - | - | - |
| 1777999772 | 32.78° C | 47% | 1015.5 hPa | 0 mm | - | - | - |
| 1777999468 | 32.78° C | 47% | 1015.5 hPa | 0 mm | - | - | - |
| 1777999173 | 32.78° C | 47% | 1015.6 hPa | 0 mm | - | - | - |
| 1777998572 | 32.22° C | 49% | 1015.6 hPa | 0 mm | - | - | - |
| 1777998288 | 31.67° C | 50% | 1015.7 hPa | 0 mm | - | - | - |
| 1777997974 | 32.22° C | 48% | 1015.6 hPa | 0 mm | - | - | - |
| 1777997692 | 32.22° C | 49% | 1015.8 hPa | 0 mm | - | - | - |
| 1777997379 | 32.22° C | 49% | 1015.7 hPa | 0 mm | - | - | - |
| 1777997070 | 32.22° C | 49% | 1015.8 hPa | 0 mm | - | - | - |
| 1777996784 | 31.67° C | 49% | 1015.6 hPa | 0 mm | - | - | - |
| 1777996471 | 31.11° C | 52% | 1015.7 hPa | 0 mm | - | - | - |
| 1777996185 | 30.56° C | 54% | 1015.7 hPa | 0 mm | - | - | - |
| 1777995873 | 30° C | 55% | 1015.6 hPa | 0 mm | - | - | - |
| 1777995586 | 30° C | 54% | 1015.8 hPa | 0 mm | - | - | - |
| 1777995274 | 29.44° C | 54% | 1015.8 hPa | 0 mm | - | - | - |
| 1777994980 | 29.44° C | 56% | 1015.8 hPa | 0 mm | - | - | - |
| 1777994674 | 30.56° C | 53% | 1015.8 hPa | 0 mm | - | - | - |
| 1777994380 | 30.56° C | 54% | 1015.7 hPa | 0 mm | - | - | - |
| 1777994078 | 30° C | 56% | 1015.8 hPa | 0 mm | - | - | - |
| 1777993791 | 29.44° C | 57% | 1015.8 hPa | 0 mm | - | - | - |
| 1777993477 | 28.89° C | 57% | 1015.8 hPa | 0 mm | - | - | - |
| 1777993183 | 28.89° C | 56% | 1015.8 hPa | 0 mm | - | - | - |
* Rain latest hour (hover to see other rain measurements)
** Current wind speed in m/s (hover to see current wind gust speed)